This is the latest recevied weather packets stored in our database for station/object NG7M. If no packets are shown the sender has not sent any weather packets the latest 10 day(s).
| Time | Temp. | Humidity | Pressure | Rain* | Wind** | Luminosity | Snow |
|---|---|---|---|---|---|---|---|
| 1777726204 | 6.67° C | 51% | 1020 hPa | 0 mm | - | - | - |
| 1777725604 | 7.22° C | 50% | 1019.8 hPa | 0 mm | - | - | - |
| 1777722003 | 7.22° C | 56% | 1019.7 hPa | 0 mm | - | - | - |
| 1777720203 | 7.22° C | 56% | 1019.6 hPa | 0 mm | - | - | - |
| 1777716903 | 8.33° C | 53% | 1019.8 hPa | 0 mm | - | - | - |
| 1777716304 | 8.33° C | 52% | 1019.6 hPa | 0 mm | - | - | - |
| 1777715704 | 8.33° C | 51% | 1019.5 hPa | 0 mm | - | - | - |
| 1777715103 | 8.33° C | 50% | 1019.5 hPa | 0 mm | - | - | - |
| 1777714804 | 8.33° C | 50% | 1019.5 hPa | 0 mm | - | - | - |
| 1777714203 | 8.33° C | 51% | 1019.6 hPa | 0 mm | - | - | - |
| 1777710904 | 8.33° C | 53% | 1019.7 hPa | 0 mm | - | - | - |
| 1777710603 | 8.33° C | 53% | 1019.6 hPa | 0 mm | - | - | - |
| 1777709704 | 8.33° C | 52% | 1019.6 hPa | 0 mm | - | - | - |
| 1777708804 | 8.89° C | 50% | 1019.5 hPa | 0 mm | - | - | - |
| 1777706403 | 10° C | 47% | 1019.4 hPa | 0 mm | - | - | - |
| 1777706104 | 10° C | 47% | 1019.4 hPa | 0 mm | - | - | - |
| 1777701003 | 11.67° C | 42% | 1019.4 hPa | 0 mm | - | - | - |
| 1777699204 | 12.22° C | 41% | 1019.3 hPa | 0 mm | - | - | - |
| 1777698904 | 12.22° C | 40% | 1019.4 hPa | 0 mm | - | - | - |
| 1777698303 | 12.78° C | 39% | 1019.3 hPa | 0 mm | - | - | - |
| 1777697103 | 13.33° C | 37% | 1019.3 hPa | 0 mm | - | - | - |
| 1777696204 | 12.78° C | 40% | 1019.2 hPa | 0 mm | - | - | - |
| 1777691103 | 15° C | 38% | 1018.2 hPa | 0 mm | - | - | - |
| 1777690504 | 15° C | 38% | 1018.2 hPa | 0 mm | - | - | - |
| 1777688703 | 16.11° C | 34% | 1018 hPa | 0 mm | - | - | - |
* Rain latest hour (hover to see other rain measurements)
** Current wind speed in m/s (hover to see current wind gust speed)